Time;durP1;ratioP1;P1;durP2;ratioP2;P2;SDS_P1;SDS_P2;PMS_P1;PMS_P2;Temp;Humidity;BMP_temperature;BMP_pressure;BME280_temperature;BME280_humidity;BME280_pressure;Samples;Min_cycle;Max_cycle;Signal;HPM_P1;HPM_P2
2020/12/19 00:01:36;;;;;;;151.73;78.17;;;2.80;93.50;;;;;;5056311;28;20511;-82
2020/12/19 00:04:05;;;;;;;165.63;80.97;;;2.80;93.40;;;;;;5056429;28;20493;-81
2020/12/19 00:06:32;;;;;;;152.67;78.70;;;2.80;93.40;;;;;;5083186;28;20190;-81
2020/12/19 00:08:59;;;;;;;147.50;76.87;;;2.80;93.40;;;;;;5073423;28;20184;-83
2020/12/19 00:11:27;;;;;;;163.03;83.10;;;2.90;93.40;;;;;;5083609;28;20209;-81
2020/12/19 00:13:55;;;;;;;158.93;79.87;;;2.70;93.40;;;;;;5061937;28;20215;-82
2020/12/19 00:16:29;;;;;;;152.67;75.90;;;2.70;93.40;;;;;;5075516;27;20218;-81
2020/12/19 00:18:56;;;;;;;143.70;74.87;;;2.80;93.40;;;;;;5081845;28;20236;-81
2020/12/19 00:21:32;;;;;;;141.97;72.00;;;2.90;93.40;;;;;;5082079;28;20286;-81
2020/12/19 00:24:00;;;;;;;135.33;72.10;;;2.60;93.30;;;;;;5067724;28;20231;-80
2020/12/19 00:26:33;;;;;;;151.77;74.63;;;2.60;93.30;;;;;;5081010;28;20518;-80
2020/12/19 00:29:00;;;;;;;139.40;68.67;;;2.50;93.30;;;;;;5071323;28;20186;-82
2020/12/19 00:31:28;;;;;;;144.87;73.87;;;2.40;93.30;;;;;;5072182;28;20558;-81
2020/12/19 00:33:56;;;;;;;154.70;76.93;;;2.20;93.30;;;;;;5068709;28;20221;-82
2020/12/19 00:36:25;;;;;;;154.77;77.97;;;2.20;93.30;;;;;;5068418;28;20198;-81
2020/12/19 00:38:53;;;;;;;151.33;77.27;;;2.10;93.20;;;;;;5074521;28;20197;-80
2020/12/19 00:41:22;;;;;;;147.93;76.40;;;2.00;93.20;;;;;;5074213;28;20238;-81
2020/12/19 00:43:50;;;;;;;157.83;79.27;;;1.90;93.20;;;;;;5077299;28;20254;-80
2020/12/19 00:46:18;;;;;;;163.93;79.07;;;1.70;93.10;;;;;;5080299;28;20189;-81
2020/12/19 00:48:46;;;;;;;157.03;78.87;;;1.60;93.10;;;;;;5074197;28;20198;-80
2020/12/19 00:51:13;;;;;;;157.40;76.67;;;1.60;93.10;;;;;;5067846;28;20202;-81
2020/12/19 00:53:42;;;;;;;149.70;75.17;;;1.60;93.10;;;;;;5059767;28;20220;-80
2020/12/19 00:56:17;;;;;;;152.20;73.37;;;1.50;93.00;;;;;;5049862;28;20229;-82
2020/12/19 00:58:45;;;;;;;159.90;75.97;;;1.40;93.00;;;;;;5049519;28;20231;-80
2020/12/19 01:01:14;;;;;;;158.90;73.67;;;1.30;93.00;;;;;;5077288;28;20838;-80
2020/12/19 01:03:42;;;;;;;141.20;71.40;;;1.20;93.00;;;;;;5036435;28;20220;-82
2020/12/19 01:06:14;;;;;;;141.33;70.60;;;1.20;93.00;;;;;;5045173;28;20202;-82
2020/12/19 01:08:43;;;;;;;156.53;77.40;;;1.20;93.00;;;;;;5051282;28;20212;-81
2020/12/19 01:11:29;;;;;;;163.10;78.40;;;1.20;92.90;;;;;;5057265;28;20240;-80
2020/12/19 01:13:58;;;;;;;160.17;75.93;;;1.10;92.90;;;;;;5037692;28;20599;-80
2020/12/19 01:16:27;;;;;;;170.53;78.73;;;1.10;92.90;;;;;;5043763;28;20218;-80
2020/12/19 01:18:56;;;;;;;158.23;78.20;;;1.00;92.90;;;;;;5050490;28;20464;-80
2020/12/19 01:21:26;;;;;;;181.60;83.83;;;1.00;92.80;;;;;;5049995;28;20229;-82
2020/12/19 01:23:55;;;;;;;183.50;85.67;;;0.90;92.80;;;;;;5039793;28;20225;-81
2020/12/19 01:26:24;;;;;;;180.43;86.37;;;0.90;92.80;;;;;;5038865;28;20274;-80
2020/12/19 01:28:51;;;;;;;187.73;87.20;;;0.70;92.70;;;;;;5057217;28;20201;-81
2020/12/19 01:31:22;;;;;;;190.60;85.50;;;0.70;92.70;;;;;;5046434;28;20201;-81
2020/12/19 01:33:50;;;;;;;189.23;87.67;;;0.70;92.70;;;;;;5054889;28;20205;-82
2020/12/19 01:36:20;;;;;;;171.80;80.30;;;0.60;92.60;;;;;;5052380;28;20276;-79
2020/12/19 01:38:48;;;;;;;180.60;82.70;;;0.60;92.60;;;;;;5047379;28;20386;-80
2020/12/19 01:41:16;;;;;;;166.07;78.90;;;0.50;92.60;;;;;;5052597;28;20256;-80
2020/12/19 01:43:47;;;;;;;160.27;76.07;;;0.40;92.60;;;;;;5057841;28;20222;-79
2020/12/19 01:46:28;;;;;;;182.77;85.13;;;0.40;92.60;;;;;;5051143;28;20220;-81
2020/12/19 01:48:57;;;;;;;186.97;85.70;;;0.40;92.60;;;;;;5055626;28;20671;-80
2020/12/19 01:51:28;;;;;;;206.97;91.77;;;0.40;92.60;;;;;;5059283;28;20197;-81
2020/12/19 01:53:57;;;;;;;195.17;87.20;;;0.40;92.60;;;;;;5047524;28;20207;-80
2020/12/19 01:56:47;;;;;;;234.43;92.00;;;0.30;92.60;;;;;;5045996;28;20581;-81
2020/12/19 01:59:16;;;;;;;249.37;95.43;;;0.30;92.60;;;;;;5052968;28;20200;-82
2020/12/19 02:01:44;;;;;;;303.27;100.17;;;0.30;92.50;;;;;;5048950;28;20694;-81
2020/12/19 02:04:12;;;;;;;351.87;100.00;;;0.30;92.50;;;;;;5047725;28;20215;-80
2020/12/19 02:06:43;;;;;;;236.23;89.67;;;0.20;92.40;;;;;;5056698;28;20779;-81
2020/12/19 02:09:13;;;;;;;213.97;89.23;;;0.20;92.40;;;;;;5052744;28;20207;-82
2020/12/19 02:11:43;;;;;;;227.97;88.43;;;0.20;92.40;;;;;;5068056;28;20199;-81
2020/12/19 02:14:11;;;;;;;362.33;97.80;;;0.20;92.40;;;;;;5056728;28;20210;-80
2020/12/19 02:16:40;;;;;;;394.37;101.90;;;0.20;92.40;;;;;;5061919;28;20218;-80
2020/12/19 02:19:13;;;;;;;284.67;93.67;;;0.20;92.30;;;;;;5066357;28;20684;-81
2020/12/19 02:21:41;;;;;;;303.97;94.50;;;0.10;92.30;;;;;;5061539;28;20223;-80
2020/12/19 02:24:10;;;;;;;292.77;93.63;;;0.00;92.30;;;;;;5059377;28;20618;-81
2020/12/19 02:26:37;;;;;;;303.97;92.77;;;-0.10;92.30;;;;;;5059683;28;20199;-81
2020/12/19 02:29:05;;;;;;;209.90;79.83;;;-0.10;92.30;;;;;;5060497;28;20211;-80
2020/12/19 02:31:33;;;;;;;270.13;89.70;;;-0.10;92.20;;;;;;5054418;28;20349;-79
2020/12/19 02:34:01;;;;;;;247.57;84.27;;;-0.10;92.20;;;;;;5061302;28;20230;-82
2020/12/19 02:36:28;;;;;;;248.33;86.60;;;-0.10;92.20;;;;;;5067509;28;20446;-80
2020/12/19 02:38:56;;;;;;;310.00;90.50;;;-0.10;92.20;;;;;;5083148;28;20510;-81
2020/12/19 02:41:24;;;;;;;292.63;90.77;;;-0.20;92.20;;;;;;5056704;28;20323;-81
2020/12/19 02:43:53;;;;;;;328.93;91.13;;;-0.20;92.10;;;;;;5060259;28;20196;-81
2020/12/19 02:46:21;;;;;;;364.20;97.83;;;-0.10;92.10;;;;;;5060990;28;20331;-80
2020/12/19 02:48:49;;;;;;;357.80;94.70;;;0.00;92.10;;;;;;5078161;28;20252;-81
2020/12/19 02:51:17;;;;;;;208.27;82.63;;;0.00;92.10;;;;;;5071803;28;20197;-81
2020/12/19 02:53:45;;;;;;;313.53;90.47;;;0.10;92.20;;;;;;5059495;28;20448;-81
2020/12/19 02:56:13;;;;;;;254.27;84.30;;;0.10;92.10;;;;;;5070088;28;20265;-81
2020/12/19 02:58:41;;;;;;;235.10;82.43;;;0.10;92.10;;;;;;5082780;28;20195;-81
2020/12/19 03:01:09;;;;;;;337.40;91.23;;;0.10;92.10;;;;;;5070735;28;20670;-79
2020/12/19 03:03:36;;;;;;;260.03;82.83;;;0.20;92.10;;;;;;5054533;28;20421;-80
2020/12/19 03:06:04;;;;;;;276.07;82.07;;;0.20;92.10;;;;;;5061999;28;20406;-82
2020/12/19 03:08:32;;;;;;;349.10;94.40;;;0.30;92.10;;;;;;5061495;28;20220;-83
2020/12/19 03:10:59;;;;;;;336.77;93.53;;;0.40;92.10;;;;;;5077109;28;20207;-79
2020/12/19 03:13:27;;;;;;;352.07;93.70;;;0.60;92.20;;;;;;5072686;28;20193;-81
2020/12/19 03:15:55;;;;;;;350.67;92.50;;;0.40;92.10;;;;;;5079953;28;20226;-81
2020/12/19 03:18:23;;;;;;;238.83;81.07;;;0.40;92.20;;;;;;5074237;28;20204;-81
2020/12/19 03:20:50;;;;;;;316.07;90.67;;;0.40;92.20;;;;;;5073222;28;20302;-81
2020/12/19 03:23:18;;;;;;;363.57;94.67;;;0.30;92.20;;;;;;5075013;28;20474;-82
2020/12/19 03:25:46;;;;;;;272.53;83.60;;;0.30;92.10;;;;;;5054747;28;20210;-80
2020/12/19 03:28:14;;;;;;;240.17;79.40;;;0.30;92.10;;;;;;5067081;28;20200;-81
2020/12/19 03:30:41;;;;;;;207.60;77.53;;;0.30;92.10;;;;;;5060746;28;20965;-81
2020/12/19 03:33:11;;;;;;;225.43;75.00;;;0.30;92.10;;;;;;5063745;28;20285;-81
2020/12/19 03:35:40;;;;;;;198.20;71.50;;;0.40;92.20;;;;;;5059301;28;20200;-81
2020/12/19 03:38:08;;;;;;;202.13;69.67;;;0.30;92.10;;;;;;5064951;28;20300;-82
2020/12/19 03:40:35;;;;;;;200.53;72.50;;;0.20;92.10;;;;;;5081316;28;20220;-81
2020/12/19 03:43:03;;;;;;;212.87;72.50;;;0.20;92.10;;;;;;5077553;28;20242;-81
2020/12/19 03:45:31;;;;;;;202.23;71.63;;;0.30;92.10;;;;;;5066968;28;20208;-81
2020/12/19 03:47:58;;;;;;;252.83;73.80;;;0.30;92.10;;;;;;5058959;28;20199;-79
2020/12/19 03:50:28;;;;;;;199.93;65.40;;;0.30;92.10;;;;;;5057119;28;20733;-80
2020/12/19 03:52:55;;;;;;;209.37;68.47;;;0.30;92.10;;;;;;5059028;28;20212;-82
2020/12/19 03:55:23;;;;;;;227.80;70.60;;;0.30;92.10;;;;;;5063361;28;20208;-81
2020/12/19 03:57:50;;;;;;;346.33;97.00;;;0.30;92.10;;;;;;5079562;28;20188;-80
2020/12/19 04:00:18;;;;;;;291.07;81.97;;;0.30;92.10;;;;;;5065737;28;20670;-81
2020/12/19 04:02:46;;;;;;;274.93;79.60;;;0.30;92.10;;;;;;5054502;28;20205;-80
2020/12/19 04:05:14;;;;;;;241.13;74.33;;;0.30;92.30;;;;;;5058333;28;20207;-82
2020/12/19 04:07:42;;;;;;;218.77;68.20;;;0.30;92.30;;;;;;5052276;28;20294;-81
2020/12/19 04:10:10;;;;;;;251.83;71.40;;;0.40;92.30;;;;;;5043602;28;20225;-82
2020/12/19 04:12:37;;;;;;;250.63;71.77;;;0.40;92.30;;;;;;5039465;28;20214;-80
2020/12/19 04:15:08;;;;;;;209.87;64.40;;;0.40;92.30;;;;;;5048302;28;20213;-81
2020/12/19 04:17:36;;;;;;;234.50;67.90;;;0.40;92.30;;;;;;5042272;28;20582;-83
2020/12/19 04:20:04;;;;;;;245.57;66.20;;;0.50;92.30;;;;;;5039709;28;20493;-80
2020/12/19 04:22:32;;;;;;;235.53;65.00;;;0.50;92.30;;;;;;5057493;28;20201;-81
2020/12/19 04:25:01;;;;;;;235.00;65.67;;;0.50;92.30;;;;;;5057295;28;20551;-81
2020/12/19 04:27:29;;;;;;;231.43;66.73;;;0.50;92.30;;;;;;5040114;28;20999;-80
2020/12/19 04:29:56;;;;;;;224.90;65.70;;;0.50;92.30;;;;;;5054762;28;21725;-81
2020/12/19 04:32:24;;;;;;;200.37;60.17;;;0.50;92.30;;;;;;5043432;28;20508;-80
2020/12/19 04:34:51;;;;;;;236.70;62.23;;;0.50;92.30;;;;;;5047448;28;20261;-80
2020/12/19 04:37:25;;;;;;;181.80;58.20;;;0.50;92.30;;;;;;5050967;28;20208;-81
2020/12/19 04:39:53;;;;;;;238.07;64.10;;;0.50;92.30;;;;;;5049166;28;20196;-81
2020/12/19 04:42:22;;;;;;;199.93;61.53;;;0.50;92.30;;;;;;5054874;28;20955;-80
2020/12/19 04:44:50;;;;;;;197.60;60.73;;;0.60;92.30;;;;;;5037333;28;20208;-81
2020/12/19 04:47:19;;;;;;;197.00;60.10;;;0.50;92.30;;;;;;5058006;28;20208;-80
2020/12/19 04:49:47;;;;;;;189.17;61.43;;;0.70;92.30;;;;;;5079311;28;20204;-79
2020/12/19 04:52:14;;;;;;;153.93;54.47;;;0.50;92.30;;;;;;5072765;28;20193;-81
2020/12/19 04:54:42;;;;;;;189.60;59.03;;;0.50;92.30;;;;;;5072137;28;20234;-81
2020/12/19 04:57:17;;;;;;;172.30;59.77;;;0.50;92.30;;;;;;5047178;28;20288;-81
2020/12/19 04:59:47;;;;;;;183.10;58.90;;;0.50;92.30;;;;;;5041180;28;20598;-81
2020/12/19 05:02:16;;;;;;;177.50;61.00;;;0.40;92.30;;;;;;5078471;28;20224;-81
2020/12/19 05:04:44;;;;;;;190.30;59.67;;;0.40;92.30;;;;;;5067323;28;20227;-81
2020/12/19 05:07:13;;;;;;;202.70;58.80;;;0.40;92.30;;;;;;5071044;28;20471;-81
2020/12/19 05:09:43;;;;;;;194.77;60.70;;;0.30;92.30;;;;;;5077170;28;20196;-80
2020/12/19 05:12:11;;;;;;;247.97;66.03;;;0.60;92.30;;;;;;5067540;28;20308;-80
2020/12/19 05:14:39;;;;;;;192.50;59.70;;;0.50;92.30;;;;;;5070360;28;20194;-81
2020/12/19 05:17:08;;;;;;;238.63;63.03;;;0.40;92.20;;;;;;5056863;28;20207;-81
2020/12/19 05:19:36;;;;;;;196.70;58.67;;;0.50;92.30;;;;;;5050041;28;20527;-81
2020/12/19 05:22:04;;;;;;;181.60;57.97;;;0.60;92.30;;;;;;5060931;28;21147;-81
2020/12/19 05:24:35;;;;;;;347.40;76.60;;;0.50;92.20;;;;;;5051219;28;20204;-80
2020/12/19 05:27:05;;;;;;;215.60;60.53;;;0.50;92.20;;;;;;5050575;28;20679;-81
2020/12/19 05:29:36;;;;;;;224.90;62.80;;;0.60;92.30;;;;;;5054630;28;20221;-80
2020/12/19 05:32:05;;;;;;;281.10;65.27;;;0.60;92.20;;;;;;5064166;28;20555;-80
2020/12/19 05:34:33;;;;;;;204.30;59.97;;;0.60;92.30;;;;;;5051189;28;20477;-81
2020/12/19 05:37:01;;;;;;;192.37;56.47;;;0.60;92.30;;;;;;5056360;28;20205;-82
2020/12/19 05:39:29;;;;;;;220.27;59.30;;;0.60;92.30;;;;;;5049707;28;20367;-81
2020/12/19 05:41:56;;;;;;;245.27;60.97;;;0.50;92.20;;;;;;5054425;28;20228;-81
2020/12/19 05:44:24;;;;;;;217.97;59.37;;;0.60;92.30;;;;;;5055242;28;20639;-81
2020/12/19 05:46:52;;;;;;;213.13;56.50;;;0.50;92.20;;;;;;5045107;28;20202;-81
2020/12/19 05:49:21;;;;;;;185.80;55.90;;;0.50;92.20;;;;;;5067322;28;20193;-81
2020/12/19 05:51:53;;;;;;;223.80;57.87;;;0.60;92.20;;;;;;5054554;28;20228;-81
2020/12/19 05:54:24;;;;;;;261.00;64.23;;;0.60;92.20;;;;;;5050273;28;20201;-82
2020/12/19 05:56:53;;;;;;;214.60;59.07;;;0.60;92.20;;;;;;5059564;28;20213;-83
2020/12/19 05:59:21;;;;;;;214.80;56.20;;;0.70;92.20;;;;;;5061628;28;20205;-81
2020/12/19 06:01:49;;;;;;;242.10;58.80;;;0.70;92.20;;;;;;5068356;28;20217;-81
2020/12/19 06:04:19;;;;;;;254.33;61.67;;;0.60;92.20;;;;;;5061719;28;20201;-82
2020/12/19 06:06:48;;;;;;;259.63;60.00;;;0.70;92.20;;;;;;5052401;28;20284;-82
2020/12/19 06:09:18;;;;;;;235.50;58.90;;;0.70;92.20;;;;;;5064155;28;20793;-82
2020/12/19 06:11:50;;;;;;;259.03;62.73;;;0.70;92.20;;;;;;5051060;28;20228;-83
2020/12/19 06:14:22;;;;;;;166.23;51.23;;;0.60;92.20;;;;;;5056222;28;20397;-81
2020/12/19 06:16:54;;;;;;;171.03;51.90;;;0.60;92.20;;;;;;5056440;28;20559;-83
2020/12/19 06:19:23;;;;;;;154.07;47.77;;;0.60;92.20;;;;;;5041421;28;20209;-82
2020/12/19 06:21:52;;;;;;;251.63;57.33;;;0.60;92.20;;;;;;5054877;28;20221;-81
2020/12/19 06:24:40;;;;;;;217.80;55.63;;;0.60;92.30;;;;;;5047374;28;20686;-82
2020/12/19 06:27:31;;;;;;;200.13;53.20;;;0.60;92.30;;;;;;5048558;28;20197;-82
2020/12/19 06:29:59;;;;;;;185.30;52.03;;;0.50;92.20;;;;;;5042235;28;20248;-81
2020/12/19 06:32:28;;;;;;;232.47;53.73;;;0.50;92.20;;;;;;5056201;28;20227;-81
2020/12/19 06:35:00;;;;;;;194.43;53.27;;;0.50;92.20;;;;;;5075079;28;20204;-82
2020/12/19 06:37:31;;;;;;;254.03;56.93;;;0.50;92.20;;;;;;5065969;28;20486;-79
2020/12/19 06:40:14;;;;;;;212.43;50.77;;;0.60;92.20;;;;;;5060021;28;20283;-82
2020/12/19 06:42:48;;;;;;;177.37;47.13;;;0.60;92.20;;;;;;5046861;28;20656;-81
2020/12/19 06:45:24;;;;;;;246.50;52.37;;;0.60;92.20;;;;;;5044394;28;20209;-80
2020/12/19 06:47:53;;;;;;;179.53;51.50;;;0.50;92.20;;;;;;5051325;28;20203;-81
2020/12/19 06:50:22;;;;;;;214.20;50.60;;;0.50;92.20;;;;;;5040039;28;20294;-81
2020/12/19 06:52:54;;;;;;;183.20;49.13;;;0.40;92.20;;;;;;5048225;28;20204;-81
2020/12/19 06:55:23;;;;;;;247.10;54.77;;;0.40;92.20;;;;;;5045143;28;20206;-79
2020/12/19 06:57:52;;;;;;;173.20;48.23;;;0.40;92.20;;;;;;5052703;28;20202;-82
2020/12/19 07:00:21;;;;;;;222.30;53.40;;;0.40;92.20;;;;;;5049093;28;20202;-81
2020/12/19 07:02:50;;;;;;;231.60;53.97;;;0.40;92.20;;;;;;5047816;28;20226;-82
2020/12/19 07:05:20;;;;;;;150.33;44.27;;;0.40;92.20;;;;;;5040416;28;20757;-81
2020/12/19 07:07:48;;;;;;;144.03;45.20;;;0.40;92.20;;;;;;5050929;28;20558;-80
2020/12/19 07:10:33;;;;;;;222.30;56.03;;;0.40;92.20;;;;;;5039265;28;20210;-81
2020/12/19 07:13:02;;;;;;;145.70;44.43;;;0.50;92.20;;;;;;5041489;28;20501;-81
2020/12/19 07:15:44;;;;;;;138.23;45.63;;;0.50;92.20;;;;;;5048787;28;20453;-80
2020/12/19 07:18:25;;;;;;;138.30;45.70;;;0.50;92.20;;;;;;5042333;28;20196;-83
2020/12/19 07:21:00;;;;;;;155.90;48.43;;;0.60;92.20;;;;;;5056456;28;20274;-82
2020/12/19 07:23:28;;;;;;;144.77;46.10;;;0.60;92.20;;;;;;5063700;28;20227;-82
2020/12/19 07:25:57;;;;;;;140.83;48.23;;;0.60;92.20;;;;;;5080364;28;20194;-82
2020/12/19 07:28:25;;;;;;;150.50;47.57;;;0.70;92.20;;;;;;5071396;28;20231;-81
2020/12/19 07:30:52;;;;;;;136.17;49.23;;;0.70;92.20;;;;;;5073358;28;20201;-81
2020/12/19 07:33:21;;;;;;;154.20;50.03;;;0.70;92.20;;;;;;5054030;28;20780;-82
2020/12/19 07:35:48;;;;;;;138.63;49.00;;;0.80;92.20;;;;;;5050946;28;20319;-80
2020/12/19 07:38:19;;;;;;;151.60;50.73;;;0.70;92.20;;;;;;5042320;28;20267;-82
2020/12/19 07:40:53;;;;;;;147.10;48.90;;;0.90;92.30;;;;;;5053907;28;20564;-81
2020/12/19 07:43:22;;;;;;;154.97;49.40;;;0.80;92.20;;;;;;5047810;28;20388;-81
2020/12/19 07:45:57;;;;;;;158.47;52.07;;;0.80;92.30;;;;;;5059027;28;20208;-82
2020/12/19 07:48:24;;;;;;;184.30;52.33;;;0.80;92.30;;;;;;5048011;28;20200;-81
2020/12/19 07:50:52;;;;;;;173.80;50.83;;;0.80;92.30;;;;;;5052781;28;20216;-82
2020/12/19 07:53:19;;;;;;;155.27;51.63;;;0.90;92.30;;;;;;5059089;28;20212;-82
2020/12/19 07:55:50;;;;;;;166.97;53.73;;;0.90;92.30;;;;;;5045529;28;20209;-81
2020/12/19 07:58:19;;;;;;;167.90;52.97;;;0.90;92.30;;;;;;5041814;28;20198;-81
2020/12/19 08:00:49;;;;;;;154.80;51.97;;;0.90;92.30;;;;;;5068863;28;20210;-79
2020/12/19 08:03:17;;;;;;;144.70;48.43;;;0.90;92.30;;;;;;5069325;28;20236;-81
2020/12/19 08:05:44;;;;;;;173.80;52.00;;;0.90;92.30;;;;;;5080877;28;20504;-82
2020/12/19 08:08:12;;;;;;;187.63;55.07;;;1.00;92.30;;;;;;5060072;28;20694;-81
2020/12/19 08:10:40;;;;;;;190.87;55.13;;;0.90;92.30;;;;;;5055862;28;20282;-83
2020/12/19 08:13:10;;;;;;;181.50;53.77;;;1.00;92.30;;;;;;5067000;28;20265;-82
2020/12/19 08:15:38;;;;;;;174.83;53.83;;;0.90;92.30;;;;;;5053904;28;20214;-82
2020/12/19 08:18:09;;;;;;;198.03;54.63;;;1.20;92.40;;;;;;5043996;28;20638;-82
2020/12/19 08:20:38;;;;;;;190.53;53.33;;;1.00;92.30;;;;;;5056410;28;20297;-82
2020/12/19 08:23:09;;;;;;;167.60;49.87;;;1.20;92.40;;;;;;5048287;28;20479;-83
2020/12/19 08:25:37;;;;;;;161.30;49.70;;;1.00;92.40;;;;;;5052721;28;20503;-81
2020/12/19 08:28:18;;;;;;;185.17;50.33;;;1.00;92.40;;;;;;5051957;28;20289;-81
2020/12/19 08:30:48;;;;;;;168.47;49.40;;;1.10;92.40;;;;;;5054334;28;20201;-83
2020/12/19 08:33:18;;;;;;;173.23;50.10;;;1.10;92.40;;;;;;5051806;28;20654;-80
2020/12/19 08:35:46;;;;;;;162.70;50.00;;;1.10;92.40;;;;;;5047539;28;20205;-82
2020/12/19 08:38:19;;;;;;;182.13;51.37;;;1.10;92.40;;;;;;5044930;28;20208;-82
2020/12/19 08:40:49;;;;;;;194.87;52.40;;;1.10;92.40;;;;;;5046163;28;20197;-82
2020/12/19 08:43:31;;;;;;;176.53;47.60;;;1.10;92.40;;;;;;5044179;28;20192;-82
2020/12/19 08:46:08;;;;;;;164.83;49.67;;;1.10;92.50;;;;;;5053299;28;20636;-82
2020/12/19 08:48:37;;;;;;;158.97;48.43;;;1.10;92.50;;;;;;5049345;28;20205;-80
2020/12/19 08:51:08;;;;;;;191.43;49.13;;;1.20;92.50;;;;;;5059710;28;20647;-82
2020/12/19 08:53:36;;;;;;;174.60;49.20;;;1.20;92.50;;;;;;5048886;28;20695;-80
2020/12/19 08:56:14;;;;;;;166.87;49.93;;;1.20;92.50;;;;;;5040466;28;20212;-81
2020/12/19 08:58:42;;;;;;;178.87;50.03;;;1.30;92.60;;;;;;5057011;28;20239;-79
2020/12/19 09:01:15;;;;;;;183.07;49.43;;;1.30;92.60;;;;;;5044434;28;20236;-79
2020/12/19 09:03:44;;;;;;;171.10;48.07;;;1.40;92.60;;;;;;5054357;28;20193;-81
2020/12/19 09:06:14;;;;;;;169.37;48.53;;;1.30;92.60;;;;;;5049589;28;20292;-83
2020/12/19 09:08:43;;;;;;;183.03;49.37;;;1.30;92.60;;;;;;5052679;28;20204;-79
2020/12/19 09:11:23;;;;;;;135.33;43.53;;;1.40;92.60;;;;;;5058971;28;20201;-81
2020/12/19 09:14:03;;;;;;;161.67;48.90;;;1.40;92.70;;;;;;5051187;28;20234;-81
2020/12/19 09:16:32;;;;;;;149.87;45.63;;;1.30;92.60;;;;;;5064146;28;20239;-81
2020/12/19 09:19:03;;;;;;;147.87;44.60;;;1.30;92.60;;;;;;5061032;28;20251;-82
2020/12/19 09:21:30;;;;;;;144.47;45.00;;;1.40;92.70;;;;;;5044791;28;20230;-79
2020/12/19 09:23:58;;;;;;;148.00;46.20;;;1.40;92.70;;;;;;5044936;28;20631;-81
2020/12/19 09:26:25;;;;;;;137.90;45.87;;;1.50;92.70;;;;;;5060214;28;20347;-82
2020/12/19 09:28:53;;;;;;;146.30;45.00;;;1.50;92.70;;;;;;5068359;28;20208;-81
2020/12/19 09:31:21;;;;;;;129.30;42.40;;;1.60;92.70;;;;;;5076243;28;20196;-83
2020/12/19 09:33:48;;;;;;;130.93;42.17;;;1.60;92.70;;;;;;5072264;28;20292;-81
2020/12/19 09:36:17;;;;;;;131.00;42.43;;;1.70;92.80;;;;;;5046796;28;20534;-81
2020/12/19 09:38:45;;;;;;;133.87;44.07;;;1.80;92.80;;;;;;5054901;28;20236;-81
2020/12/19 09:41:12;;;;;;;121.23;43.27;;;2.10;92.90;;;;;;5062261;28;20292;-80
2020/12/19 09:43:40;;;;;;;117.70;41.43;;;1.90;92.80;;;;;;5069571;28;20221;-81
2020/12/19 09:46:07;;;;;;;98.27;39.23;;;2.00;92.90;;;;;;5073821;28;20236;-81
2020/12/19 09:48:35;;;;;;;99.67;38.37;;;2.00;92.90;;;;;;5041810;28;20609;-80
2020/12/19 09:51:03;;;;;;;100.17;38.87;;;2.00;92.90;;;;;;5037547;28;20623;-79
2020/12/19 09:53:34;;;;;;;94.73;36.40;;;1.90;92.90;;;;;;5052250;28;20310;-82
2020/12/19 09:56:02;;;;;;;92.37;36.57;;;2.00;93.00;;;;;;5052645;28;20761;-80
2020/12/19 09:58:30;;;;;;;89.27;36.60;;;2.00;93.00;;;;;;5041299;28;20406;-82
2020/12/19 10:00:57;;;;;;;88.73;35.33;;;1.90;93.00;;;;;;5055367;28;20827;-82
2020/12/19 10:03:25;;;;;;;91.67;37.10;;;1.90;93.10;;;;;;5048332;28;20214;-82
2020/12/19 10:05:53;;;;;;;79.50;34.13;;;2.00;93.10;;;;;;5048737;28;20193;-81
2020/12/19 10:08:23;;;;;;;75.93;35.17;;;2.00;93.20;;;;;;5053756;28;20362;-81
2020/12/19 10:10:52;;;;;;;76.43;34.13;;;2.00;93.20;;;;;;5048010;28;20296;-80
2020/12/19 10:13:19;;;;;;;75.60;32.00;;;2.00;93.30;;;;;;5051879;28;20238;-80
2020/12/19 10:15:47;;;;;;;76.13;33.80;;;2.00;93.30;;;;;;5050245;28;20682;-79
2020/12/19 10:18:15;;;;;;;74.70;34.17;;;2.00;93.40;;;;;;5050427;28;20205;-81
2020/12/19 10:20:42;;;;;;;63.00;30.27;;;2.10;93.50;;;;;;5052720;28;20463;-82
2020/12/19 10:23:10;;;;;;;66.23;31.37;;;2.00;93.50;;;;;;5067410;28;20227;-81
2020/12/19 10:25:38;;;;;;;60.73;30.60;;;2.00;93.50;;;;;;5060204;28;20224;-81
2020/12/19 10:28:06;;;;;;;68.53;32.27;;;2.10;93.60;;;;;;5054573;28;20522;-82
2020/12/19 10:30:34;;;;;;;69.40;32.23;;;2.10;93.60;;;;;;5045335;28;20209;-82
2020/12/19 10:33:01;;;;;;;62.70;30.60;;;2.20;93.70;;;;;;5045049;28;20246;-83
2020/12/19 10:35:29;;;;;;;57.23;28.50;;;2.10;93.60;;;;;;5050820;28;20710;-82
2020/12/19 10:37:56;;;;;;;61.20;29.57;;;2.10;93.60;;;;;;5043240;28;20201;-82
2020/12/19 10:40:24;;;;;;;52.83;28.73;;;2.10;93.60;;;;;;5048841;28;20203;-81
2020/12/19 10:42:51;;;;;;;63.47;30.57;;;2.10;93.60;;;;;;5047206;28;20316;-82
2020/12/19 10:45:20;;;;;;;60.27;28.63;;;2.10;93.60;;;;;;5043562;28;20202;-82
2020/12/19 10:47:47;;;;;;;61.13;29.57;;;2.10;93.50;;;;;;5048942;28;20206;-80
2020/12/19 10:50:18;;;;;;;59.13;30.30;;;2.10;93.50;;;;;;5043990;28;20217;-82
2020/12/19 10:52:47;;;;;;;62.60;28.77;;;2.20;93.60;;;;;;5047285;28;20237;-82
2020/12/19 10:55:15;;;;;;;55.50;29.07;;;2.20;93.50;;;;;;5071303;28;20261;-81
2020/12/19 10:57:43;;;;;;;61.37;30.40;;;2.10;93.50;;;;;;5072951;28;20212;-81
2020/12/19 11:00:10;;;;;;;59.10;28.73;;;2.30;93.50;;;;;;5082769;28;20356;-81
2020/12/19 11:02:39;;;;;;;53.30;28.40;;;2.30;93.40;;;;;;5064183;28;20221;-81
2020/12/19 11:05:06;;;;;;;58.43;28.10;;;2.40;93.40;;;;;;5066784;28;20293;-83
2020/12/19 11:07:34;;;;;;;56.30;28.73;;;2.40;93.30;;;;;;5085113;28;20242;-79
2020/12/19 11:10:03;;;;;;;55.50;26.77;;;2.30;93.20;;;;;;5077117;28;20197;-81
2020/12/19 11:12:30;;;;;;;50.77;26.03;;;2.40;93.30;;;;;;5060214;28;20212;-83
2020/12/19 11:14:58;;;;;;;49.97;26.57;;;2.40;93.20;;;;;;5063621;28;20215;-80
2020/12/19 11:17:26;;;;;;;47.70;25.57;;;2.30;93.00;;;;;;5067344;28;20213;-80
2020/12/19 11:19:55;;;;;;;49.80;25.67;;;2.30;93.10;;;;;;5064904;28;20186;-81
2020/12/19 11:22:22;;;;;;;44.40;23.83;;;2.40;93.10;;;;;;5073336;28;20550;-79
2020/12/19 11:24:50;;;;;;;41.83;23.63;;;2.40;93.10;;;;;;5032276;28;20801;-80
2020/12/19 11:27:17;;;;;;;45.07;23.80;;;2.40;93.00;;;;;;5074120;28;20236;-80
2020/12/19 11:29:45;;;;;;;39.27;23.40;;;2.40;93.00;;;;;;5064830;28;20234;-82
2020/12/19 11:32:12;;;;;;;42.23;23.13;;;2.40;92.80;;;;;;5053222;28;20771;-81
2020/12/19 11:34:40;;;;;;;41.60;23.80;;;2.40;92.80;;;;;;5048759;28;20217;-82
2020/12/19 11:37:08;;;;;;;43.90;23.50;;;2.40;92.70;;;;;;5046831;28;20280;-81
2020/12/19 11:39:36;;;;;;;41.93;21.70;;;2.40;92.80;;;;;;5043559;28;20252;-82
2020/12/19 11:42:04;;;;;;;40.40;22.77;;;2.40;92.70;;;;;;5054651;28;20767;-81
2020/12/19 11:44:31;;;;;;;36.47;20.70;;;2.50;92.70;;;;;;5046288;28;20692;-80
2020/12/19 11:46:59;;;;;;;38.57;22.53;;;2.30;92.70;;;;;;5049806;28;20362;-82
2020/12/19 11:49:29;;;;;;;44.90;23.13;;;2.40;92.80;;;;;;5053014;28;20728;-80
2020/12/19 11:52:00;;;;;;;40.60;22.80;;;2.30;92.90;;;;;;5048513;28;20197;-80
2020/12/19 11:54:28;;;;;;;41.13;22.73;;;2.40;92.90;;;;;;5056139;28;20300;-81
2020/12/19 11:56:56;;;;;;;43.77;23.37;;;2.40;92.80;;;;;;5053157;28;20612;-81
2020/12/19 11:59:24;;;;;;;42.67;22.47;;;2.40;92.90;;;;;;5080432;28;20202;-79
2020/12/19 12:01:51;;;;;;;37.73;20.87;;;2.50;93.00;;;;;;5059586;28;20229;-83
2020/12/19 12:04:18;;;;;;;36.80;21.20;;;2.40;92.90;;;;;;5051257;28;20681;-80
2020/12/19 12:06:46;;;;;;;34.10;19.87;;;2.40;92.90;;;;;;5048037;28;20557;-80
2020/12/19 12:09:13;;;;;;;36.93;21.47;;;2.40;92.80;;;;;;5061840;28;20442;-82
2020/12/19 12:11:53;;;;;;;38.63;20.93;;;2.30;92.80;;;;;;5064425;28;20208;-80
2020/12/19 12:14:21;;;;;;;40.63;22.33;;;2.40;92.90;;;;;;5059299;28;20197;-82
2020/12/19 12:16:48;;;;;;;37.83;21.60;;;2.20;93.00;;;;;;5061001;28;20210;-81
2020/12/19 12:19:16;;;;;;;36.53;21.53;;;2.30;93.00;;;;;;5040675;28;20615;-79
2020/12/19 12:21:44;;;;;;;37.53;20.57;;;2.30;93.00;;;;;;5062996;28;20214;-81
2020/12/19 12:24:12;;;;;;;38.37;21.87;;;2.30;93.10;;;;;;5060574;28;20205;-80
2020/12/19 12:26:40;;;;;;;41.77;22.90;;;2.30;93.10;;;;;;5066311;28;20186;-82
2020/12/19 12:29:08;;;;;;;37.23;20.70;;;2.30;93.20;;;;;;5059384;28;20882;-81
2020/12/19 12:31:35;;;;;;;40.23;21.43;;;2.40;93.20;;;;;;5058127;28;20182;-81
2020/12/19 12:34:04;;;;;;;39.00;21.07;;;2.30;93.10;;;;;;5044883;28;20339;-79
2020/12/19 12:36:32;;;;;;;39.80;22.17;;;2.40;93.10;;;;;;5055369;28;20482;-81
2020/12/19 12:39:00;;;;;;;37.97;21.33;;;2.30;93.10;;;;;;5048130;28;20698;-80